Time;durP1;ratioP1;P1;durP2;ratioP2;P2;SDS_P1;SDS_P2;PMS_P1;PMS_P2;Temp;Humidity;BMP_temperature;BMP_pressure;BME280_temperature;BME280_humidity;BME280_pressure;Samples;Min_cycle;Max_cycle;Signal;HPM_P1;HPM_P2
2022/12/29 00:01:44;;;;;;;6.85;2.88;;;11.70;99.90;;;;;;5032126;28;20036;-71
2022/12/29 00:04:14;;;;;;;3.60;2.60;;;11.70;99.90;;;;;;5031815;28;20740;-70
2022/12/29 00:06:42;;;;;;;7.90;2.97;;;11.70;99.90;;;;;;5033902;28;20018;-70
2022/12/29 00:09:10;;;;;;;2.88;2.03;;;11.70;99.90;;;;;;5029623;28;20021;-70
2022/12/29 00:11:37;;;;;;;7.53;2.90;;;11.60;99.90;;;;;;5032887;28;20100;-69
2022/12/29 00:16:47;;;;;;;4.53;2.47;;;11.60;99.90;;;;;;5033120;28;20425;-69
2022/12/29 00:35:54;;;;;;;4.60;2.88;;;11.10;99.90;;;;;;5025154;28;20036;-69
2022/12/29 00:46:34;;;;;;;5.88;2.40;;;11.10;99.90;;;;;;5033158;28;20489;-69
2022/12/29 00:51:45;;;;;;;4.45;2.30;;;11.10;99.90;;;;;;5034088;28;20390;-69
2022/12/29 00:54:11;;;;;;;4.78;2.50;;;11.20;99.90;;;;;;5034501;28;20036;-69
2022/12/29 00:56:37;;;;;;;5.82;2.05;;;11.20;99.90;;;;;;5014201;28;20034;-69
2022/12/29 00:59:04;;;;;;;3.92;2.00;;;11.30;99.90;;;;;;5033496;28;20033;-69
2022/12/29 01:01:30;;;;;;;2.38;1.58;;;11.30;99.90;;;;;;5019670;28;20070;-69
2022/12/29 01:03:56;;;;;;;6.03;1.80;;;11.30;99.90;;;;;;5036955;28;20379;-70
2022/12/29 01:06:23;;;;;;;3.53;1.95;;;11.30;99.90;;;;;;5034430;28;20030;-69
2022/12/29 01:10:09;;;;;;;3.83;1.58;;;11.40;99.90;;;;;;5032719;28;20386;-69
2022/12/29 01:11:33;;;;;;;4.57;1.88;;;11.40;99.90;;;;;;5026057;28;20468;-69
2022/12/29 01:13:59;;;;;;;3.17;1.65;;;11.40;99.90;;;;;;5032783;28;20029;-69
2022/12/29 01:16:25;;;;;;;2.92;1.55;;;11.40;99.90;;;;;;5028234;28;20038;-69
2022/12/29 01:18:50;;;;;;;3.60;1.50;;;11.40;99.90;;;;;;5032972;28;20029;-68
2022/12/29 01:21:16;;;;;;;3.83;1.40;;;11.40;99.90;;;;;;5029779;28;20037;-69
2022/12/29 01:23:41;;;;;;;3.00;1.63;;;11.40;99.90;;;;;;5033595;28;20038;-69
2022/12/29 01:26:15;;;;;;;5.25;1.65;;;11.40;99.90;;;;;;5034017;28;20035;-69
2022/12/29 01:28:41;;;;;;;2.85;1.50;;;11.40;99.90;;;;;;5033793;28;20037;-69
2022/12/29 01:31:08;;;;;;;3.92;1.67;;;11.40;99.90;;;;;;5034167;28;20036;-69
2022/12/29 01:33:33;;;;;;;5.15;1.60;;;11.30;99.90;;;;;;5033031;28;20050;-70
2022/12/29 01:36:03;;;;;;;3.53;1.60;;;11.30;99.90;;;;;;5030765;28;20116;-70
2022/12/29 01:38:29;;;;;;;4.00;1.40;;;11.20;99.90;;;;;;5027196;28;20040;-70
2022/12/29 01:40:55;;;;;;;6.07;1.73;;;11.10;99.90;;;;;;5029569;28;20045;-70
2022/12/29 01:43:21;;;;;;;5.40;1.65;;;11.10;99.90;;;;;;5031373;28;20517;-70
2022/12/29 01:45:51;;;;;;;5.68;1.58;;;11.00;99.90;;;;;;5032793;28;20025;-70
2022/12/29 01:48:18;;;;;;;5.85;1.48;;;11.00;99.90;;;;;;5031654;28;20115;-71
2022/12/29 01:50:51;;;;;;;6.65;1.55;;;10.90;99.90;;;;;;5024358;28;20110;-70
2022/12/29 01:53:28;;;;;;;5.05;1.52;;;10.90;99.90;;;;;;5033241;28;20119;-70
2022/12/29 01:55:58;;;;;;;7.22;1.70;;;10.90;99.90;;;;;;5031238;28;20079;-70
2022/12/29 01:58:27;;;;;;;4.05;1.45;;;10.80;99.90;;;;;;5028382;28;20067;-69
2022/12/29 02:00:53;;;;;;;7.95;1.33;;;10.80;99.90;;;;;;5030049;28;20122;-70
2022/12/29 02:03:21;;;;;;;3.50;1.17;;;10.70;99.90;;;;;;5031485;28;20566;-69
2022/12/29 02:06:18;;;;;;;6.05;1.17;;;10.60;99.90;;;;;;5032761;28;20112;-69
2022/12/29 02:08:46;;;;;;;9.07;2.35;;;10.60;99.90;;;;;;5027604;28;20029;-69
2022/12/29 02:11:12;;;;;;;8.93;1.90;;;10.50;99.90;;;;;;5032987;28;20459;-70
2022/12/29 02:13:38;;;;;;;16.77;2.10;;;10.40;99.90;;;;;;5027205;28;20025;-70
2022/12/29 02:16:19;;;;;;;10.60;1.85;;;10.40;99.90;;;;;;5033115;28;20025;-69
2022/12/29 02:18:50;;;;;;;12.85;2.42;;;10.40;99.90;;;;;;5031742;28;20034;-68
2022/12/29 02:21:56;;;;;;;12.32;3.47;;;10.40;99.90;;;;;;5030061;28;20502;-69
2022/12/29 02:24:48;;;;;;;5.72;1.85;;;10.50;99.90;;;;;;5022485;28;20590;-69
2022/12/29 02:27:43;;;;;;;13.48;2.55;;;10.60;99.90;;;;;;5031811;28;20033;-69
2022/12/29 02:30:17;;;;;;;10.40;2.15;;;10.60;99.90;;;;;;5023308;28;20120;-69
2022/12/29 02:33:01;;;;;;;7.20;1.88;;;10.60;99.90;;;;;;5023632;28;20033;-68
2022/12/29 02:35:35;;;;;;;10.13;2.30;;;10.60;99.90;;;;;;5032718;28;20120;-69
2022/12/29 02:38:20;;;;;;;12.80;1.88;;;10.60;99.90;;;;;;5015952;28;20060;-68
2022/12/29 02:40:51;;;;;;;13.70;3.17;;;10.60;99.90;;;;;;5022735;28;20029;-68
2022/12/29 02:43:35;;;;;;;10.63;1.60;;;10.60;99.90;;;;;;5029607;28;20063;-68
2022/12/29 02:46:19;;;;;;;11.43;1.73;;;10.70;99.90;;;;;;5028857;28;20479;-69
2022/12/29 02:49:04;;;;;;;11.02;1.60;;;10.70;99.90;;;;;;5032657;28;20454;-68
2022/12/29 02:51:48;;;;;;;12.02;1.45;;;10.70;99.90;;;;;;5031577;28;20041;-69
2022/12/29 02:57:02;;;;;;;12.35;1.83;;;10.60;99.90;;;;;;5025081;28;20127;-68
2022/12/29 02:59:29;;;;;;;14.80;1.52;;;10.50;99.90;;;;;;5031706;28;20144;-68
2022/12/29 03:02:51;;;;;;;12.75;2.40;;;10.50;99.90;;;;;;5029815;28;20124;-68
2022/12/29 03:05:20;;;;;;;21.40;2.70;;;10.40;99.90;;;;;;5026851;28;20102;-68
2022/12/29 03:08:17;;;;;;;11.68;2.45;;;10.30;99.90;;;;;;5039001;28;20028;-68
2022/12/29 03:11:01;;;;;;;16.88;2.80;;;10.20;99.90;;;;;;5030244;28;20043;-69
2022/12/29 03:16:38;;;;;;;21.20;2.72;;;10.10;99.90;;;;;;5016339;28;20494;-69
2022/12/29 03:19:34;;;;;;;15.10;2.88;;;10.10;99.90;;;;;;5032291;28;20079;-68
2022/12/29 03:22:27;;;;;;;14.25;2.72;;;10.10;99.90;;;;;;5033646;28;20049;-69
2022/12/29 03:25:28;;;;;;;17.33;3.15;;;10.10;99.90;;;;;;5022711;28;20129;-68
2022/12/29 03:27:58;;;;;;;18.40;2.67;;;10.20;99.90;;;;;;5026625;28;20045;-68
2022/12/29 03:30:26;;;;;;;14.00;2.47;;;10.20;99.90;;;;;;5031014;28;20025;-68
2022/12/29 03:33:04;;;;;;;23.52;2.53;;;10.20;99.90;;;;;;5026146;28;20116;-69
2022/12/29 03:35:32;;;;;;;13.45;3.22;;;10.20;99.90;;;;;;5040068;28;20033;-71
2022/12/29 03:38:17;;;;;;;20.10;3.17;;;10.20;99.90;;;;;;5025580;28;20036;-68
2022/12/29 03:40:48;;;;;;;18.95;3.65;;;10.20;99.90;;;;;;5021874;28;20034;-68
2022/12/29 03:43:15;;;;;;;18.65;3.45;;;10.20;99.90;;;;;;5032186;28;20029;-68
2022/12/29 03:45:40;;;;;;;21.05;3.50;;;10.20;99.90;;;;;;5033438;28;20022;-68
2022/12/29 03:48:06;;;;;;;21.38;4.18;;;10.20;99.90;;;;;;5031018;28;20038;-68
2022/12/29 03:50:32;;;;;;;20.10;3.05;;;10.20;99.90;;;;;;5036077;28;20026;-69
2022/12/29 03:52:57;;;;;;;23.98;4.40;;;10.20;99.90;;;;;;5030683;28;20392;-69
2022/12/29 03:55:23;;;;;;;26.75;4.05;;;10.10;99.90;;;;;;5034487;28;20021;-69
2022/12/29 03:57:48;;;;;;;19.83;3.55;;;10.10;99.90;;;;;;5032023;28;20117;-69
2022/12/29 04:00:14;;;;;;;17.75;2.65;;;10.10;99.90;;;;;;5032975;28;20069;-70
2022/12/29 04:02:39;;;;;;;19.65;3.70;;;10.20;99.90;;;;;;5031478;28;20474;-69
2022/12/29 04:05:06;;;;;;;15.70;2.28;;;10.20;99.90;;;;;;5036274;28;20025;-69
2022/12/29 04:07:31;;;;;;;16.00;2.30;;;10.20;99.90;;;;;;5031826;28;20036;-70
2022/12/29 04:09:57;;;;;;;10.10;2.13;;;10.20;99.90;;;;;;5031946;28;20026;-70
2022/12/29 04:12:22;;;;;;;17.10;3.47;;;10.20;99.90;;;;;;5031815;28;20033;-69
2022/12/29 04:14:48;;;;;;;11.57;1.95;;;10.30;99.90;;;;;;5032091;28;20045;-69
2022/12/29 04:17:13;;;;;;;13.95;2.53;;;10.30;99.90;;;;;;5032886;28;20387;-69
2022/12/29 04:19:39;;;;;;;13.85;2.38;;;10.30;99.90;;;;;;5037367;28;20397;-70
2022/12/29 04:22:05;;;;;;;15.73;3.25;;;10.30;99.90;;;;;;5039856;28;20060;-69
2022/12/29 04:24:30;;;;;;;13.07;2.15;;;10.40;99.90;;;;;;5035540;28;20053;-69
2022/12/29 04:26:56;;;;;;;12.07;2.35;;;10.30;99.90;;;;;;5033239;28;20025;-70
2022/12/29 04:29:21;;;;;;;18.63;2.65;;;10.30;99.90;;;;;;5024289;28;20113;-69
2022/12/29 04:31:47;;;;;;;20.60;2.53;;;10.30;99.90;;;;;;5037259;28;20025;-70
2022/12/29 04:34:12;;;;;;;19.45;3.17;;;10.30;99.90;;;;;;5035596;28;20084;-70
2022/12/29 04:36:39;;;;;;;14.10;2.63;;;10.30;99.90;;;;;;5046829;28;20029;-69
2022/12/29 04:39:05;;;;;;;25.02;3.90;;;10.30;99.90;;;;;;5035449;28;20028;-70
2022/12/29 04:41:31;;;;;;;25.70;4.15;;;10.30;99.90;;;;;;5035150;28;20033;-69
2022/12/29 04:43:56;;;;;;;19.60;3.72;;;10.30;99.90;;;;;;5033248;28;20025;-69
2022/12/29 04:46:22;;;;;;;19.65;3.22;;;10.20;99.90;;;;;;5038786;28;20025;-70
2022/12/29 04:48:48;;;;;;;22.92;4.50;;;10.20;99.90;;;;;;5035078;28;20450;-69
2022/12/29 04:51:13;;;;;;;22.33;4.20;;;10.30;99.90;;;;;;5037347;28;20483;-69
2022/12/29 04:53:39;;;;;;;25.30;4.30;;;10.30;99.90;;;;;;5034900;28;21116;-69
2022/12/29 04:56:05;;;;;;;26.25;3.55;;;10.30;99.90;;;;;;5035116;28;20025;-69
2022/12/29 04:58:30;;;;;;;23.98;3.60;;;10.30;99.90;;;;;;5033615;28;20028;-69
2022/12/29 05:00:56;;;;;;;19.05;3.03;;;10.20;99.90;;;;;;5037159;28;20025;-69
2022/12/29 05:03:21;;;;;;;16.02;3.50;;;10.20;99.90;;;;;;5027367;28;20034;-69
2022/12/29 05:05:47;;;;;;;16.60;3.30;;;10.10;99.90;;;;;;5029694;28;20506;-69
2022/12/29 05:08:12;;;;;;;23.92;3.05;;;10.10;99.90;;;;;;5048010;28;20036;-68
2022/12/29 05:10:38;;;;;;;18.40;3.75;;;10.10;99.90;;;;;;5033489;28;20025;-69
2022/12/29 05:13:04;;;;;;;13.93;2.72;;;10.00;99.90;;;;;;5034791;28;20029;-69
2022/12/29 05:15:29;;;;;;;21.83;3.53;;;10.00;99.90;;;;;;5033337;28;20125;-69
2022/12/29 05:17:55;;;;;;;15.43;2.97;;;9.90;99.90;;;;;;5032128;28;20061;-70
2022/12/29 05:20:20;;;;;;;15.93;4.97;;;9.90;99.90;;;;;;5033592;28;20083;-69
2022/12/29 05:22:46;;;;;;;21.70;3.15;;;9.90;99.90;;;;;;5034156;28;20026;-69
2022/12/29 05:25:11;;;;;;;19.80;2.80;;;9.90;99.90;;;;;;5034641;28;20051;-69
2022/12/29 05:27:37;;;;;;;18.88;3.03;;;9.90;99.90;;;;;;5034596;28;20071;-69
2022/12/29 05:30:03;;;;;;;20.58;3.88;;;9.90;99.90;;;;;;5033609;28;20053;-69
2022/12/29 05:32:29;;;;;;;17.13;3.20;;;10.00;99.90;;;;;;5033805;28;20159;-70
2022/12/29 05:34:54;;;;;;;22.45;3.97;;;10.10;99.90;;;;;;5034628;28;20028;-69
2022/12/29 05:37:20;;;;;;;22.45;3.00;;;10.10;99.90;;;;;;5041156;28;20533;-70
2022/12/29 05:39:45;;;;;;;24.33;3.60;;;10.10;99.90;;;;;;5032768;28;20026;-69
2022/12/29 05:42:11;;;;;;;13.75;3.78;;;10.10;99.90;;;;;;5030128;28;20065;-69
2022/12/29 05:44:36;;;;;;;23.83;3.33;;;10.10;99.90;;;;;;5030978;28;20036;-69
2022/12/29 05:47:02;;;;;;;18.20;3.55;;;10.10;99.90;;;;;;5034959;28;20014;-70
2022/12/29 05:49:28;;;;;;;25.63;3.80;;;10.00;99.90;;;;;;5033835;28;20509;-69
2022/12/29 05:51:54;;;;;;;27.48;4.85;;;9.90;99.90;;;;;;5038965;28;20469;-69
2022/12/29 05:54:20;;;;;;;24.45;3.28;;;9.90;99.90;;;;;;5033704;28;20081;-69
2022/12/29 05:56:45;;;;;;;16.95;3.60;;;9.90;99.90;;;;;;5034397;28;20029;-69
2022/12/29 05:59:11;;;;;;;25.98;4.03;;;9.80;99.90;;;;;;5032320;28;20029;-69
2022/12/29 06:01:36;;;;;;;27.35;3.83;;;9.90;99.90;;;;;;5034222;28;20121;-69
2022/12/29 06:04:02;;;;;;;22.20;3.80;;;9.80;99.90;;;;;;5030559;28;20048;-69
2022/12/29 06:06:28;;;;;;;21.17;3.38;;;9.80;99.90;;;;;;5033136;28;20036;-69
2022/12/29 06:08:53;;;;;;;20.55;3.58;;;9.80;99.90;;;;;;5034497;28;20049;-69
2022/12/29 06:11:19;;;;;;;21.73;3.80;;;9.80;99.90;;;;;;5033041;28;20041;-69
2022/12/29 06:13:44;;;;;;;23.08;3.90;;;9.90;99.90;;;;;;5033784;28;20044;-69
2022/12/29 06:16:10;;;;;;;24.75;3.42;;;9.90;99.90;;;;;;5032186;28;20022;-69
2022/12/29 06:18:35;;;;;;;19.30;3.80;;;9.90;99.90;;;;;;5033098;28;20029;-69
2022/12/29 06:21:03;;;;;;;19.60;3.63;;;9.90;99.90;;;;;;5038106;28;20022;-68
2022/12/29 06:23:29;;;;;;;21.50;2.95;;;10.00;99.90;;;;;;5033077;28;20022;-69
2022/12/29 06:25:54;;;;;;;19.67;3.28;;;10.00;99.90;;;;;;5033422;28;20034;-69
2022/12/29 06:28:20;;;;;;;19.25;3.20;;;10.10;99.90;;;;;;5031832;28;20387;-69
2022/12/29 06:30:47;;;;;;;22.45;3.50;;;10.10;99.90;;;;;;5030507;28;20033;-69
2022/12/29 06:33:13;;;;;;;26.35;4.57;;;10.20;99.90;;;;;;5032869;28;20021;-69
2022/12/29 06:35:39;;;;;;;27.48;3.30;;;10.20;99.90;;;;;;5024340;28;20017;-69
2022/12/29 06:38:05;;;;;;;25.73;3.75;;;10.20;99.90;;;;;;5032940;28;20039;-69
2022/12/29 06:40:31;;;;;;;22.00;4.05;;;10.20;99.90;;;;;;5032695;28;20163;-69
2022/12/29 06:42:56;;;;;;;22.35;3.58;;;10.10;99.90;;;;;;5032641;28;20120;-69
2022/12/29 06:45:22;;;;;;;25.25;4.28;;;10.10;99.90;;;;;;5033320;28;20037;-69
2022/12/29 06:47:47;;;;;;;28.23;4.70;;;10.10;99.90;;;;;;5032151;28;20025;-69
2022/12/29 06:50:13;;;;;;;22.45;3.40;;;10.20;99.90;;;;;;5035359;28;20103;-69
2022/12/29 06:52:38;;;;;;;27.23;4.85;;;10.20;99.90;;;;;;5032684;28;20090;-69
2022/12/29 06:55:04;;;;;;;24.05;3.17;;;10.10;99.90;;;;;;5032604;28;20017;-69
2022/12/29 06:57:30;;;;;;;22.35;3.55;;;10.10;99.90;;;;;;5032297;28;20047;-69
2022/12/29 06:59:55;;;;;;;23.88;3.90;;;10.10;99.90;;;;;;5029823;28;20021;-69
2022/12/29 07:02:22;;;;;;;24.27;4.65;;;10.10;99.90;;;;;;5031908;28;20041;-68
2022/12/29 07:04:47;;;;;;;26.05;3.28;;;10.00;99.90;;;;;;5034332;28;20028;-69
2022/12/29 07:07:13;;;;;;;25.50;4.15;;;10.00;99.90;;;;;;5035956;28;20055;-69
2022/12/29 07:09:38;;;;;;;21.92;4.05;;;10.00;99.90;;;;;;5031003;28;20163;-69
2022/12/29 07:12:04;;;;;;;26.58;5.03;;;10.00;99.90;;;;;;5032581;28;20459;-69
2022/12/29 07:14:30;;;;;;;19.60;3.65;;;10.00;99.90;;;;;;5031749;28;20474;-69
2022/12/29 07:16:55;;;;;;;23.73;4.28;;;10.00;99.90;;;;;;5033012;28;20057;-69
2022/12/29 07:19:21;;;;;;;20.05;3.55;;;10.10;99.90;;;;;;5029861;28;20060;-69
2022/12/29 07:21:46;;;;;;;28.45;5.00;;;10.10;99.90;;;;;;5033591;28;20037;-69
2022/12/29 07:24:12;;;;;;;23.08;3.95;;;10.10;99.90;;;;;;5030012;28;20030;-69
2022/12/29 07:26:37;;;;;;;23.45;3.97;;;10.10;99.90;;;;;;5028791;28;20033;-69
2022/12/29 07:29:04;;;;;;;21.95;3.42;;;10.10;99.90;;;;;;5030859;28;20030;-68
2022/12/29 07:31:29;;;;;;;27.70;4.38;;;10.10;99.90;;;;;;5032932;28;20065;-69
2022/12/29 07:33:55;;;;;;;30.05;4.93;;;10.20;99.90;;;;;;5031979;28;20045;-69
2022/12/29 07:36:20;;;;;;;24.67;4.50;;;10.10;99.90;;;;;;5031763;28;20034;-68
2022/12/29 07:38:46;;;;;;;25.15;3.72;;;10.20;99.90;;;;;;5031692;28;20029;-69
2022/12/29 07:41:12;;;;;;;21.38;4.22;;;10.20;99.90;;;;;;5029714;28;20042;-68
2022/12/29 07:43:37;;;;;;;19.85;3.55;;;10.20;99.90;;;;;;5029656;28;20030;-69
2022/12/29 07:46:03;;;;;;;21.77;4.70;;;10.30;99.90;;;;;;5032870;28;20021;-69
2022/12/29 07:48:29;;;;;;;30.20;3.67;;;10.30;99.90;;;;;;5031388;28;20143;-69
2022/12/29 07:50:54;;;;;;;17.27;3.33;;;10.30;99.90;;;;;;5037704;28;20033;-69
2022/12/29 07:53:20;;;;;;;23.30;3.50;;;10.40;99.90;;;;;;5032555;28;20036;-69
2022/12/29 07:55:45;;;;;;;19.75;3.50;;;10.50;99.90;;;;;;5036331;28;20463;-69
2022/12/29 07:58:11;;;;;;;25.15;4.40;;;10.50;99.90;;;;;;5036258;28;20049;-68
2022/12/29 08:00:38;;;;;;;16.42;3.50;;;10.50;99.90;;;;;;5031024;28;20030;-69
2022/12/29 08:03:04;;;;;;;25.52;3.85;;;10.50;99.90;;;;;;5036063;28;20034;-69
2022/12/29 08:05:31;;;;;;;38.53;6.00;;;10.60;99.90;;;;;;5035248;28;20043;-69
2022/12/29 08:07:57;;;;;;;18.52;4.00;;;10.50;99.90;;;;;;5037421;28;20032;-69
2022/12/29 08:10:22;;;;;;;23.13;3.80;;;10.50;99.90;;;;;;5034201;28;20026;-69
2022/12/29 08:12:48;;;;;;;25.92;4.07;;;10.50;99.90;;;;;;5034845;28;20244;-69
2022/12/29 08:15:14;;;;;;;19.23;3.47;;;10.50;99.90;;;;;;5034613;28;20036;-69
2022/12/29 08:17:40;;;;;;;22.85;3.55;;;10.40;99.90;;;;;;5029445;28;20463;-69
2022/12/29 08:20:06;;;;;;;18.35;3.15;;;10.40;99.90;;;;;;5035217;28;20124;-69
2022/12/29 08:22:31;;;;;;;23.60;3.55;;;10.40;99.90;;;;;;5039380;28;20103;-69
2022/12/29 08:24:57;;;;;;;21.60;3.30;;;10.20;99.90;;;;;;5034347;28;20055;-69
2022/12/29 08:27:22;;;;;;;18.23;3.05;;;10.10;99.90;;;;;;5035103;28;20033;-69
2022/12/29 08:29:48;;;;;;;16.67;3.05;;;9.90;99.90;;;;;;5033700;28;20030;-70
2022/12/29 08:32:14;;;;;;;24.15;5.22;;;9.90;99.90;;;;;;5034542;28;20171;-70
2022/12/29 08:34:40;;;;;;;22.80;3.75;;;9.80;99.90;;;;;;5035865;28;20029;-69
2022/12/29 08:37:05;;;;;;;19.88;3.17;;;9.70;99.90;;;;;;5040863;28;20034;-69
2022/12/29 08:39:31;;;;;;;21.35;3.60;;;9.70;99.90;;;;;;5036428;28;20025;-70
2022/12/29 08:41:57;;;;;;;22.13;3.75;;;9.70;99.90;;;;;;5033779;28;20037;-69
2022/12/29 08:44:22;;;;;;;18.40;3.28;;;9.60;99.90;;;;;;5032446;28;20096;-70
2022/12/29 08:46:48;;;;;;;17.35;3.03;;;9.60;99.90;;;;;;5038434;28;20041;-69
2022/12/29 08:49:13;;;;;;;21.48;3.95;;;9.60;99.90;;;;;;5035081;28;20042;-69
2022/12/29 08:51:39;;;;;;;28.85;5.28;;;9.60;99.90;;;;;;5034746;28;20083;-69
2022/12/29 08:54:05;;;;;;;31.45;5.72;;;9.60;99.90;;;;;;5033107;28;20057;-69
2022/12/29 08:56:31;;;;;;;17.60;3.90;;;9.60;99.90;;;;;;5034120;28;20195;-69
2022/12/29 08:58:56;;;;;;;21.73;3.90;;;9.60;99.90;;;;;;5033513;28;20086;-68
2022/12/29 09:01:22;;;;;;;19.10;3.00;;;9.60;99.90;;;;;;5032481;28;20120;-69
2022/12/29 09:03:48;;;;;;;24.35;4.30;;;9.60;99.90;;;;;;5034355;28;20375;-69
2022/12/29 09:06:15;;;;;;;32.83;5.65;;;9.60;99.90;;;;;;5034719;28;20033;-70
2022/12/29 09:08:41;;;;;;;17.52;3.30;;;9.70;99.90;;;;;;5033416;28;20040;-69
2022/12/29 09:11:16;;;;;;;33.75;4.38;;;9.70;99.90;;;;;;5034051;28;20034;-69
2022/12/29 09:13:42;;;;;;;26.48;4.80;;;9.80;99.90;;;;;;5034246;28;21587;-69
2022/12/29 09:16:08;;;;;;;26.52;4.03;;;9.80;99.90;;;;;;5034311;28;20045;-69
2022/12/29 09:18:34;;;;;;;37.65;5.20;;;9.80;99.90;;;;;;5033378;28;20034;-69
2022/12/29 09:21:02;;;;;;;21.92;3.97;;;9.80;99.90;;;;;;5045506;28;20552;-70
2022/12/29 09:23:29;;;;;;;31.73;4.10;;;9.80;99.90;;;;;;5034071;28;20034;-69
2022/12/29 09:25:55;;;;;;;24.85;4.60;;;9.90;99.90;;;;;;5034080;28;20018;-70
2022/12/29 09:28:21;;;;;;;28.75;6.60;;;9.90;99.90;;;;;;5032292;28;20037;-68
2022/12/29 09:30:47;;;;;;;28.83;4.57;;;9.90;99.90;;;;;;5031271;28;20053;-69
2022/12/29 09:33:12;;;;;;;34.30;5.60;;;10.00;99.90;;;;;;5032153;28;20057;-68
2022/12/29 09:35:45;;;;;;;31.45;4.05;;;10.00;99.90;;;;;;5033677;28;20443;-69
2022/12/29 09:38:11;;;;;;;28.73;4.90;;;10.00;99.90;;;;;;5030948;28;20021;-69
2022/12/29 09:40:38;;;;;;;28.85;3.97;;;10.00;99.90;;;;;;5033135;28;20075;-68
2022/12/29 09:43:41;;;;;;;32.85;5.03;;;10.00;99.90;;;;;;5032798;28;20128;-68
2022/12/29 09:46:13;;;;;;;29.23;4.45;;;10.10;99.90;;;;;;5032012;28;20068;-68
2022/12/29 09:48:43;;;;;;;31.13;4.72;;;10.10;99.90;;;;;;5033022;28;20050;-68
2022/12/29 09:51:14;;;;;;;27.08;4.18;;;10.10;99.90;;;;;;5036186;28;20036;-68
2022/12/29 09:54:07;;;;;;;31.17;5.30;;;10.20;99.90;;;;;;5021114;28;20061;-69
2022/12/29 09:56:32;;;;;;;29.60;5.70;;;10.30;99.90;;;;;;5033251;28;20402;-68
2022/12/29 09:59:05;;;;;;;31.58;5.43;;;10.30;99.90;;;;;;5030459;28;20026;-68
2022/12/29 10:02:14;;;;;;;32.15;4.28;;;10.30;99.90;;;;;;5033611;28;20072;-69
2022/12/29 10:04:44;;;;;;;31.73;4.70;;;10.30;99.90;;;;;;5033097;28;20495;-69
2022/12/29 10:07:38;;;;;;;37.63;5.28;;;10.20;99.90;;;;;;5036228;28;20029;-71
2022/12/29 10:10:31;;;;;;;30.50;4.57;;;10.20;99.90;;;;;;5029861;28;20387;-69
2022/12/29 10:13:13;;;;;;;31.63;6.18;;;10.30;99.90;;;;;;5032257;28;20053;-68
2022/12/29 10:16:09;;;;;;;36.03;7.10;;;10.30;99.90;;;;;;5030105;28;20104;-70
2022/12/29 10:19:07;;;;;;;34.95;6.40;;;10.40;99.90;;;;;;5029381;28;20467;-69
2022/12/29 10:21:56;;;;;;;37.33;4.72;;;10.50;99.90;;;;;;5030524;28;20049;-70
2022/12/29 10:24:23;;;;;;;37.28;5.72;;;10.50;99.90;;;;;;5030678;28;20060;-69
2022/12/29 10:26:51;;;;;;;38.78;6.45;;;10.50;99.90;;;;;;5030845;28;20038;-71
2022/12/29 10:29:22;;;;;;;33.65;5.07;;;10.60;99.90;;;;;;5028857;28;20026;-70
2022/12/29 10:32:10;;;;;;;33.92;5.47;;;10.70;99.90;;;;;;5031943;28;20040;-71
2022/12/29 10:34:45;;;;;;;36.45;6.22;;;10.80;99.90;;;;;;5029848;28;20119;-69
2022/12/29 10:37:47;;;;;;;30.75;5.55;;;10.90;99.90;;;;;;5034444;28;20123;-69
2022/12/29 10:40:31;;;;;;;25.00;4.30;;;11.10;99.90;;;;;;5023875;28;20471;-70
2022/12/29 10:42:57;;;;;;;23.33;4.70;;;11.20;99.90;;;;;;5024993;28;20021;-69
2022/12/29 10:45:30;;;;;;;29.90;6.60;;;11.20;99.90;;;;;;5027093;28;20029;-71
2022/12/29 10:48:08;;;;;;;23.92;4.25;;;11.30;99.90;;;;;;5029256;28;20029;-70
2022/12/29 10:50:34;;;;;;;24.23;4.80;;;11.30;99.90;;;;;;5031091;28;20079;-69
2022/12/29 10:53:04;;;;;;;22.00;3.53;;;11.20;99.90;;;;;;5030848;28;20028;-69
2022/12/29 10:55:33;;;;;;;27.05;4.28;;;11.20;99.90;;;;;;5032301;28;20330;-70
2022/12/29 10:58:04;;;;;;;26.10;3.60;;;11.30;99.90;;;;;;5031147;28;20028;-69
2022/12/29 11:00:31;;;;;;;24.40;3.93;;;11.20;99.90;;;;;;5027347;28;20029;-70
2022/12/29 11:03:18;;;;;;;23.33;3.58;;;11.10;99.90;;;;;;5031547;28;20057;-69
2022/12/29 11:06:10;;;;;;;26.80;3.20;;;11.20;99.90;;;;;;5028978;28;20033;-70
2022/12/29 11:08:40;;;;;;;14.80;2.20;;;11.10;99.90;;;;;;5031875;28;20041;-70
2022/12/29 11:11:09;;;;;;;25.17;3.25;;;11.20;99.90;;;;;;5030675;28;20029;-69
2022/12/29 11:13:48;;;;;;;19.83;2.30;;;11.30;99.90;;;;;;5026839;28;20028;-70
2022/12/29 11:16:13;;;;;;;18.63;4.00;;;11.40;99.90;;;;;;5061587;28;20037;-69
2022/12/29 11:18:42;;;;;;;17.05;2.80;;;11.40;99.90;;;;;;5030826;28;20033;-69
2022/12/29 11:21:39;;;;;;;19.88;4.00;;;11.40;99.90;;;;;;5030558;28;20025;-70
2022/12/29 11:24:20;;;;;;;15.60;2.42;;;11.40;99.90;;;;;;5028343;28;20037;-70
2022/12/29 11:26:45;;;;;;;25.02;3.58;;;11.50;99.90;;;;;;5029575;28;20450;-69
2022/12/29 11:29:14;;;;;;;19.13;3.72;;;11.50;99.90;;;;;;5028863;28;20065;-69
2022/12/29 11:31:45;;;;;;;25.00;2.92;;;11.50;99.90;;;;;;5030423;28;20067;-70
2022/12/29 11:34:34;;;;;;;17.17;2.63;;;11.40;99.90;;;;;;5020311;28;20037;-69
2022/12/29 11:37:03;;;;;;;22.05;3.67;;;11.30;99.90;;;;;;5028343;28;20033;-69
2022/12/29 11:39:37;;;;;;;20.73;3.85;;;11.40;99.90;;;;;;5031578;28;20037;-69
2022/12/29 11:42:09;;;;;;;28.92;3.63;;;11.50;99.90;;;;;;5029513;28;20053;-70
2022/12/29 11:44:41;;;;;;;18.48;3.28;;;11.50;99.90;;;;;;5031949;28;20033;-69
2022/12/29 11:47:11;;;;;;;18.10;3.75;;;11.50;99.90;;;;;;5031404;28;20041;-70
2022/12/29 11:49:37;;;;;;;27.95;4.53;;;11.50;99.90;;;;;;5025054;28;20037;-70
2022/12/29 11:52:03;;;;;;;19.60;3.10;;;11.70;99.90;;;;;;5024050;28;20035;-70
2022/12/29 11:54:33;;;;;;;17.20;3.97;;;12.10;99.90;;;;;;5031491;28;20026;-70
2022/12/29 11:57:13;;;;;;;16.10;2.85;;;12.50;99.90;;;;;;5025758;28;20018;-69
2022/12/29 12:00:00;;;;;;;18.88;2.95;;;12.70;99.90;;;;;;5026987;28;20025;-69
2022/12/29 12:02:37;;;;;;;14.23;2.90;;;12.60;99.90;;;;;;5025574;28;20045;-69
2022/12/29 12:05:12;;;;;;;19.00;2.40;;;12.40;99.90;;;;;;5035986;28;20032;-69
2022/12/29 12:07:42;;;;;;;22.05;3.28;;;12.50;99.90;;;;;;5029317;28;20049;-69
2022/12/29 12:10:26;;;;;;;19.83;3.97;;;12.50;99.90;;;;;;5030348;28;20041;-70
2022/12/29 12:12:56;;;;;;;13.05;3.10;;;12.70;99.90;;;;;;5030880;28;20033;-70
2022/12/29 12:15:43;;;;;;;20.92;3.33;;;12.80;99.90;;;;;;5032113;28;20026;-69
2022/12/29 12:18:29;;;;;;;19.45;3.28;;;13.00;99.90;;;;;;5028936;28;20520;-70
2022/12/29 12:20:58;;;;;;;16.50;2.95;;;13.00;99.90;;;;;;5034337;28;20532;-70
2022/12/29 12:23:43;;;;;;;21.25;2.78;;;12.90;99.90;;;;;;5027223;28;20056;-70
2022/12/29 12:26:21;;;;;;;22.23;3.10;;;12.80;99.90;;;;;;5029265;28;20025;-69
2022/12/29 12:28:55;;;;;;;13.55;2.88;;;12.70;99.90;;;;;;5026341;28;20068;-70
2022/12/29 12:31:40;;;;;;;16.27;2.35;;;12.50;99.90;;;;;;5024471;28;20032;-70
2022/12/29 12:34:12;;;;;;;13.60;2.05;;;12.30;99.90;;;;;;5017550;28;20025;-70
2022/12/29 12:37:12;;;;;;;18.05;2.85;;;12.20;99.90;;;;;;5024878;28;20113;-69
2022/12/29 12:39:55;;;;;;;17.35;2.83;;;12.20;99.90;;;;;;5031044;28;20491;-69
2022/12/29 12:42:47;;;;;;;20.77;3.72;;;12.10;99.90;;;;;;5034725;28;20383;-70
2022/12/29 12:45:40;;;;;;;16.85;2.60;;;11.90;99.90;;;;;;5032677;28;20029;-70
2022/12/29 12:48:16;;;;;;;16.75;2.53;;;11.80;99.90;;;;;;5034591;28;20413;-69
2022/12/29 12:51:09;;;;;;;14.30;2.95;;;11.70;99.90;;;;;;5032213;28;21156;-70
2022/12/29 12:53:48;;;;;;;18.55;3.33;;;11.50;99.90;;;;;;5030335;28;20025;-69
2022/12/29 12:56:26;;;;;;;17.15;2.92;;;11.50;99.90;;;;;;5034471;28;20028;-69
2022/12/29 12:59:06;;;;;;;18.77;2.80;;;11.40;99.90;;;;;;5032844;28;20025;-69
2022/12/29 13:02:01;;;;;;;12.45;2.45;;;11.40;99.90;;;;;;5031273;28;20038;-70
2022/12/29 13:04:48;;;;;;;19.20;3.08;;;11.30;99.90;;;;;;5033873;28;20049;-70
2022/12/29 13:07:25;;;;;;;18.48;2.88;;;11.30;99.90;;;;;;5029739;28;20042;-69
2022/12/29 13:10:11;;;;;;;19.77;3.80;;;11.30;99.90;;;;;;5029296;28;20029;-69
2022/12/29 13:13:07;;;;;;;21.35;4.05;;;11.30;99.90;;;;;;5033300;28;20045;-69
2022/12/29 13:15:44;;;;;;;21.75;4.47;;;11.20;99.90;;;;;;5033634;28;20501;-70
2022/12/29 13:18:25;;;;;;;23.10;5.13;;;11.20;99.90;;;;;;5031993;28;20025;-69
2022/12/29 13:21:27;;;;;;;16.45;3.10;;;11.30;99.90;;;;;;5033696;28;20068;-71
2022/12/29 13:24:12;;;;;;;18.35;3.38;;;11.20;99.90;;;;;;5018782;28;20055;-69
2022/12/29 13:26:50;;;;;;;21.75;4.88;;;11.20;99.90;;;;;;5026236;28;20025;-70
2022/12/29 13:29:23;;;;;;;21.05;4.40;;;11.00;99.90;;;;;;5034393;28;20044;-69
2022/12/29 13:32:22;;;;;;;18.83;3.92;;;11.00;99.90;;;;;;5032312;28;20076;-70
2022/12/29 13:35:22;;;;;;;15.07;3.42;;;11.00;99.90;;;;;;5034154;28;20467;-69
2022/12/29 13:38:00;;;;;;;19.88;4.43;;;11.00;99.90;;;;;;5032468;28;20034;-70
2022/12/29 13:40:28;;;;;;;23.65;4.20;;;11.00;99.90;;;;;;5039163;28;20032;-71